createdAt,value
2022-10-08T00:01:07.940Z,4.63
2022-10-08T00:03:37.439Z,4.10
2022-10-08T00:06:05.829Z,3.70
2022-10-08T00:08:35.896Z,3.77
2022-10-08T00:11:06.485Z,4.07
2022-10-08T00:13:43.506Z,3.73
2022-10-08T00:16:17.768Z,4.07
2022-10-08T00:18:47.108Z,3.30
2022-10-08T00:21:26.119Z,3.80
2022-10-08T00:23:53.540Z,3.60
2022-10-08T00:26:24.262Z,3.30
2022-10-08T00:28:53.459Z,3.83
2022-10-08T00:31:26.550Z,3.90
2022-10-08T00:33:56.368Z,3.87
2022-10-08T00:36:25.531Z,4.07
2022-10-08T00:39:00.466Z,3.50
2022-10-08T00:41:30.928Z,3.30
2022-10-08T00:44:24.176Z,3.33
2022-10-08T00:46:51.417Z,3.90
2022-10-08T00:49:22.748Z,3.40
2022-10-08T00:51:58.605Z,3.40
2022-10-08T00:54:25.561Z,3.57
2022-10-08T00:56:54.219Z,3.43
2022-10-08T00:59:21.466Z,3.37
2022-10-08T01:01:48.598Z,3.13
2022-10-08T01:04:16.034Z,3.43
2022-10-08T01:07:13.385Z,3.70
2022-10-08T01:09:54.245Z,3.53
2022-10-08T01:12:27.125Z,3.43
2022-10-08T01:15:39.175Z,3.03
2022-10-08T01:18:26.157Z,3.27
2022-10-08T01:21:19.840Z,3.60
2022-10-08T01:24:01.492Z,2.93
2022-10-08T01:26:43.434Z,3.50
2022-10-08T01:29:42.027Z,3.17
2022-10-08T01:32:19.397Z,3.23
2022-10-08T01:35:01.190Z,3.30
2022-10-08T01:37:32.796Z,3.63
2022-10-08T01:40:04.028Z,3.27
2022-10-08T01:42:33.833Z,3.10
2022-10-08T01:45:12.842Z,3.37
2022-10-08T01:47:40.997Z,3.43
2022-10-08T01:50:12.863Z,4.20
2022-10-08T01:52:48.764Z,2.97
2022-10-08T01:55:27.753Z,3.20
2022-10-08T01:57:59.474Z,3.03
2022-10-08T02:00:26.256Z,3.40
2022-10-08T02:02:55.607Z,3.43
2022-10-08T02:05:26.080Z,3.60
2022-10-08T02:07:54.196Z,4.17
2022-10-08T02:10:24.960Z,3.13
2022-10-08T02:12:51.669Z,3.53
2022-10-08T02:15:22.676Z,3.50
2022-10-08T02:18:16.019Z,3.77
2022-10-08T02:21:16.142Z,3.27
2022-10-08T02:23:53.975Z,3.67
2022-10-08T02:26:25.870Z,3.27
2022-10-08T02:29:04.051Z,3.60
2022-10-08T02:31:48.377Z,3.23
2022-10-08T02:34:23.532Z,3.20
2022-10-08T02:37:11.156Z,3.50
2022-10-08T02:39:43.877Z,3.57
2022-10-08T02:42:15.854Z,3.60
2022-10-08T02:44:48.086Z,3.50
2022-10-08T02:47:18.667Z,3.53
2022-10-08T02:50:00.035Z,3.40
2022-10-08T02:52:30.161Z,2.80
2022-10-08T02:55:00.360Z,4.07
2022-10-08T02:57:38.073Z,3.77
2022-10-08T03:00:05.520Z,3.40
2022-10-08T03:02:56.234Z,3.80
2022-10-08T03:05:23.416Z,3.20
2022-10-08T03:07:53.466Z,3.30
2022-10-08T03:10:21.911Z,3.17
2022-10-08T03:12:49.504Z,3.10
2022-10-08T03:15:16.843Z,3.20
2022-10-08T03:17:46.341Z,3.20
2022-10-08T03:20:13.860Z,3.50
2022-10-08T03:22:41.152Z,3.20
2022-10-08T03:25:08.419Z,3.50
2022-10-08T03:27:35.461Z,3.50
2022-10-08T03:30:03.359Z,4.17
2022-10-08T03:32:30.438Z,3.70
2022-10-08T03:34:57.427Z,3.43
2022-10-08T03:37:24.616Z,3.17
2022-10-08T03:39:51.616Z,2.90
2022-10-08T03:42:18.829Z,3.63
2022-10-08T03:44:45.485Z,3.37
2022-10-08T03:47:12.545Z,2.87
2022-10-08T03:49:40.066Z,3.20
2022-10-08T03:52:07.207Z,3.13
2022-10-08T03:54:37.313Z,2.93
2022-10-08T03:57:04.142Z,3.40
2022-10-08T03:59:31.195Z,3.20
2022-10-08T04:01:57.831Z,3.47
2022-10-08T04:04:25.689Z,3.50
2022-10-08T04:06:52.641Z,3.00
2022-10-08T04:09:19.707Z,2.97
2022-10-08T04:11:46.355Z,3.00
2022-10-08T04:14:13.024Z,2.60
2022-10-08T04:16:40.066Z,3.33
2022-10-08T04:19:06.748Z,3.07
2022-10-08T04:21:33.474Z,2.73
2022-10-08T04:24:00.599Z,3.37
2022-10-08T04:26:27.308Z,3.73
2022-10-08T04:28:54.650Z,3.07
2022-10-08T04:31:23.413Z,2.97
2022-10-08T04:33:51.667Z,3.40
2022-10-08T04:36:21.435Z,3.40
2022-10-08T04:38:49.168Z,3.10
2022-10-08T04:41:18.443Z,3.30
2022-10-08T04:43:46.106Z,3.10
2022-10-08T04:46:15.244Z,3.10
2022-10-08T04:48:47.388Z,2.80
2022-10-08T04:51:15.101Z,2.90
2022-10-08T04:53:42.375Z,3.40
2022-10-08T04:56:15.235Z,3.13
2022-10-08T04:58:42.023Z,3.70
2022-10-08T05:01:11.700Z,3.10
2022-10-08T05:03:40.119Z,3.10
2022-10-08T05:06:07.625Z,3.63
2022-10-08T05:08:35.126Z,3.30
2022-10-08T05:11:02.246Z,3.27
2022-10-08T05:13:29.408Z,3.50
2022-10-08T05:15:56.563Z,3.73
2022-10-08T05:18:23.349Z,3.20
2022-10-08T05:20:50.472Z,2.93
2022-10-08T05:23:17.250Z,3.60
2022-10-08T05:25:43.966Z,3.10
2022-10-08T05:28:10.653Z,3.10
2022-10-08T05:30:37.369Z,3.43
2022-10-08T05:33:04.108Z,3.47
2022-10-08T05:35:31.195Z,3.33
2022-10-08T05:37:58.319Z,3.77
2022-10-08T05:40:25.526Z,3.77
2022-10-08T05:42:52.734Z,3.50
2022-10-08T05:45:19.843Z,3.40
2022-10-08T05:47:48.286Z,3.77
2022-10-08T05:50:15.527Z,3.70
2022-10-08T05:52:42.246Z,3.50
2022-10-08T05:55:09.267Z,3.80
2022-10-08T05:57:35.914Z,3.37
2022-10-08T06:00:02.692Z,3.80
2022-10-08T06:02:29.373Z,3.30
2022-10-08T06:04:56.464Z,3.57
2022-10-08T06:07:23.202Z,3.23
2022-10-08T06:09:52.127Z,3.33
2022-10-08T06:12:18.842Z,3.40
2022-10-08T06:14:45.494Z,3.40
2022-10-08T06:17:12.150Z,4.33
2022-10-08T06:19:38.790Z,3.10
2022-10-08T06:22:05.426Z,3.43
2022-10-08T06:24:32.098Z,3.60
2022-10-08T06:26:59.211Z,3.90
2022-10-08T06:29:25.881Z,4.83
2022-10-08T06:31:53.577Z,3.80
2022-10-08T06:34:20.342Z,3.63
2022-10-08T06:36:47.489Z,4.30
2022-10-08T06:39:16.309Z,5.23
2022-10-08T06:41:43.395Z,3.30
2022-10-08T06:44:13.315Z,3.70
2022-10-08T06:46:40.310Z,4.30
2022-10-08T06:49:07.403Z,3.67
2022-10-08T06:51:34.823Z,3.30
2022-10-08T06:54:07.458Z,4.67
2022-10-08T06:56:36.330Z,4.20
2022-10-08T06:59:04.181Z,3.87
2022-10-08T07:01:33.635Z,3.93
2022-10-08T07:04:02.098Z,3.93
2022-10-08T07:06:29.290Z,5.13
2022-10-08T07:08:57.939Z,5.47
2022-10-08T07:11:25.712Z,5.87
2022-10-08T07:13:53.963Z,6.27
2022-10-08T07:16:23.208Z,7.10
2022-10-08T07:18:51.579Z,6.50
2022-10-08T07:21:20.121Z,7.17
2022-10-08T07:23:47.437Z,6.20
2022-10-08T07:26:18.252Z,6.43
2022-10-08T07:28:53.843Z,6.00
2022-10-08T07:31:23.313Z,6.43
2022-10-08T07:33:50.020Z,5.67
2022-10-08T07:36:19.715Z,6.70
2022-10-08T07:38:46.456Z,6.33
2022-10-08T07:41:13.464Z,6.13
2022-10-08T07:43:43.727Z,5.80
2022-10-08T07:46:12.101Z,6.27
2022-10-08T07:48:39.666Z,5.80
2022-10-08T07:51:12.011Z,5.97
2022-10-08T07:53:39.668Z,6.97
2022-10-08T07:56:08.266Z,5.30
2022-10-08T07:58:36.120Z,6.30
2022-10-08T08:01:04.977Z,6.43
2022-10-08T08:03:32.319Z,5.77
2022-10-08T08:06:09.166Z,7.57
2022-10-08T08:08:37.641Z,6.37
2022-10-08T08:11:06.271Z,6.53
2022-10-08T08:13:37.266Z,6.53
2022-10-08T08:16:10.165Z,6.73
2022-10-08T08:18:39.395Z,7.20
2022-10-08T08:21:08.989Z,6.17
2022-10-08T08:23:37.933Z,6.87
2022-10-08T08:26:12.149Z,7.47
2022-10-08T08:28:39.825Z,6.73
2022-10-08T08:31:10.600Z,7.10
2022-10-08T08:33:37.465Z,7.20
2022-10-08T08:36:04.685Z,6.57
2022-10-08T08:38:31.921Z,6.40
2022-10-08T08:41:26.182Z,6.63
2022-10-08T08:44:01.059Z,6.87
2022-10-08T08:46:32.794Z,6.60
2022-10-08T08:49:07.733Z,6.53
2022-10-08T08:51:34.924Z,5.67
2022-10-08T08:54:01.913Z,5.07
2022-10-08T08:56:29.870Z,5.60
2022-10-08T08:59:24.926Z,5.23
2022-10-08T09:01:56.240Z,5.60
2022-10-08T09:04:41.652Z,4.83
2022-10-08T09:07:20.749Z,4.67
2022-10-08T09:09:51.260Z,5.33
2022-10-08T09:12:36.587Z,6.17
2022-10-08T09:15:05.342Z,5.37
2022-10-08T09:20:15.234Z,5.47
2022-10-08T09:22:42.005Z,4.80
2022-10-08T09:25:17.918Z,4.10
2022-10-08T09:27:45.934Z,4.07
2022-10-08T09:30:24.928Z,4.17
2022-10-08T09:32:54.384Z,3.77
2022-10-08T09:35:22.004Z,4.40
2022-10-08T09:37:50.031Z,4.00
2022-10-08T09:40:18.433Z,3.40
2022-10-08T09:42:45.665Z,3.53
2022-10-08T09:45:38.435Z,3.73
2022-10-08T09:48:26.395Z,3.90
2022-10-08T09:50:57.536Z,3.93
2022-10-08T09:53:28.578Z,3.90
2022-10-08T09:55:57.241Z,4.13
2022-10-08T09:58:24.411Z,3.70
2022-10-08T10:01:12.110Z,4.00
2022-10-08T10:03:39.837Z,3.37
2022-10-08T10:06:06.759Z,5.57
2022-10-08T10:08:43.222Z,3.30
2022-10-08T10:11:31.329Z,4.10
2022-10-08T10:14:04.648Z,3.80
2022-10-08T10:16:41.773Z,3.00
2022-10-08T10:19:22.180Z,2.60
2022-10-08T10:21:54.818Z,2.63
2022-10-08T10:24:45.739Z,2.40
2022-10-08T10:27:35.439Z,3.00
2022-10-08T10:30:21.857Z,3.60
2022-10-08T10:32:51.095Z,3.37
2022-10-08T10:35:24.794Z,3.10
2022-10-08T10:38:00.675Z,3.17
2022-10-08T10:40:36.290Z,3.60
2022-10-08T10:43:25.456Z,4.13
2022-10-08T10:46:04.753Z,4.03
2022-10-08T10:48:31.447Z,4.10
2022-10-08T10:51:04.128Z,3.73
2022-10-08T10:53:46.916Z,3.97
2022-10-08T10:56:17.415Z,4.07
2022-10-08T10:59:17.176Z,4.50
2022-10-08T11:01:52.777Z,3.93
2022-10-08T11:04:22.163Z,4.50
2022-10-08T11:07:30.202Z,3.87
2022-10-08T11:10:06.362Z,4.67
2022-10-08T11:12:44.334Z,4.00
2022-10-08T11:15:20.683Z,4.03
2022-10-08T11:18:10.495Z,3.40
2022-10-08T11:21:10.543Z,3.73
2022-10-08T11:23:58.293Z,3.77
2022-10-08T11:26:55.419Z,3.40
2022-10-08T11:29:39.015Z,3.37
2022-10-08T11:32:15.081Z,3.37
2022-10-08T11:34:58.553Z,3.07
2022-10-08T11:37:31.358Z,2.70
2022-10-08T11:40:22.654Z,3.10
2022-10-08T11:42:50.046Z,2.63
2022-10-08T11:45:29.948Z,2.40
2022-10-08T11:47:59.800Z,2.40
2022-10-08T11:50:41.169Z,3.27
2022-10-08T11:53:10.871Z,2.30
2022-10-08T11:55:38.491Z,2.10
2022-10-08T11:58:19.925Z,2.07
2022-10-08T12:00:48.136Z,2.60
2022-10-08T12:03:27.040Z,2.10
2022-10-08T12:05:58.012Z,2.10
2022-10-08T12:08:50.527Z,2.57
2022-10-08T12:11:32.419Z,2.07
2022-10-08T12:14:11.306Z,2.10
2022-10-08T12:16:59.058Z,3.30
2022-10-08T12:19:35.149Z,3.00
2022-10-08T12:22:25.092Z,2.30
2022-10-08T12:24:54.582Z,1.83
2022-10-08T12:27:24.853Z,1.83
2022-10-08T12:29:57.677Z,1.60
2022-10-08T12:32:30.321Z,1.53
2022-10-08T12:34:57.549Z,2.60
2022-10-08T12:37:33.735Z,2.50
2022-10-08T12:40:09.513Z,1.83
2022-10-08T12:42:38.402Z,1.90
2022-10-08T12:45:24.419Z,2.47
2022-10-08T12:48:04.736Z,2.00
2022-10-08T12:50:47.523Z,1.57
2022-10-08T12:53:16.456Z,1.77
2022-10-08T12:55:56.301Z,2.03
2022-10-08T12:58:28.031Z,1.80
2022-10-08T13:00:58.296Z,1.70
2022-10-08T13:03:25.508Z,1.50
2022-10-08T13:05:55.227Z,1.60
2022-10-08T13:08:38.681Z,1.63
2022-10-08T13:11:12.594Z,2.20
2022-10-08T13:13:39.213Z,2.30
2022-10-08T13:16:08.739Z,2.37
2022-10-08T13:18:36.811Z,1.60
2022-10-08T13:21:07.868Z,1.70
2022-10-08T13:23:40.260Z,1.80
2022-10-08T13:26:39.213Z,1.57
2022-10-08T13:29:24.190Z,1.83
2022-10-08T13:32:05.689Z,1.73
2022-10-08T13:35:01.152Z,2.03
2022-10-08T13:37:36.220Z,1.60
2022-10-08T13:40:11.215Z,1.87
2022-10-08T13:42:52.945Z,1.90
2022-10-08T13:45:22.059Z,2.10
2022-10-08T13:47:49.536Z,1.80
2022-10-08T13:50:18.620Z,1.93
2022-10-08T13:52:54.692Z,1.80
2022-10-08T13:55:28.776Z,1.80
2022-10-08T13:57:56.895Z,1.70
2022-10-08T14:00:23.908Z,1.67
2022-10-08T14:02:51.710Z,1.97
2022-10-08T14:05:19.668Z,1.50
2022-10-08T14:07:51.161Z,1.80
2022-10-08T14:10:19.138Z,1.50
2022-10-08T14:12:45.842Z,1.57
2022-10-08T14:15:14.170Z,1.47
2022-10-08T14:17:41.215Z,1.70
2022-10-08T14:20:08.563Z,1.47
2022-10-08T14:22:41.306Z,1.83
2022-10-08T14:25:13.513Z,1.70
2022-10-08T14:27:40.553Z,1.80
2022-10-08T14:30:09.171Z,2.00
2022-10-08T14:32:36.414Z,2.40
2022-10-08T14:35:03.926Z,1.90
2022-10-08T14:37:30.979Z,1.50
2022-10-08T14:39:58.323Z,1.43
2022-10-08T14:42:24.990Z,1.40
2022-10-08T14:44:53.272Z,1.50
2022-10-08T14:47:20.662Z,1.73
2022-10-08T14:49:47.804Z,1.70
2022-10-08T14:52:14.878Z,1.87
2022-10-08T14:54:41.600Z,2.10
2022-10-08T14:57:08.308Z,1.80
2022-10-08T14:59:39.916Z,1.90
2022-10-08T15:02:07.680Z,1.67
2022-10-08T15:04:34.741Z,1.67
2022-10-08T15:07:01.796Z,1.50
2022-10-08T15:09:28.865Z,1.97
2022-10-08T15:11:55.991Z,1.67
2022-10-08T15:14:23.877Z,1.40
2022-10-08T15:16:50.856Z,1.57
2022-10-08T15:19:22.743Z,1.57
2022-10-08T15:21:50.825Z,2.03
2022-10-08T15:24:17.718Z,2.20
2022-10-08T15:26:44.372Z,3.30
2022-10-08T15:29:11.718Z,4.67
2022-10-08T15:31:38.882Z,3.00
2022-10-08T15:34:05.851Z,2.20
2022-10-08T15:36:34.444Z,3.30
2022-10-08T15:39:04.505Z,3.80
2022-10-08T15:41:35.714Z,5.37
2022-10-08T15:44:19.838Z,3.40
2022-10-08T15:46:47.900Z,2.00
2022-10-08T15:49:14.806Z,1.60
2022-10-08T15:51:42.094Z,1.70
2022-10-08T15:54:09.252Z,1.80
2022-10-08T15:56:36.578Z,2.10
2022-10-08T15:59:04.322Z,1.73
2022-10-08T16:01:31.500Z,2.13
2022-10-08T16:04:00.178Z,4.97
2022-10-08T16:06:31.834Z,3.07
2022-10-08T16:08:59.476Z,2.90
2022-10-08T16:11:28.964Z,2.40
2022-10-08T16:14:01.687Z,1.83
2022-10-08T16:16:34.216Z,1.70
2022-10-08T16:19:03.190Z,1.67
2022-10-08T16:21:31.726Z,1.90
2022-10-08T16:23:59.371Z,2.00
2022-10-08T16:26:27.172Z,2.30
2022-10-08T16:28:57.075Z,1.83
2022-10-08T16:31:25.745Z,3.60
2022-10-08T16:34:00.927Z,3.33
2022-10-08T16:36:29.096Z,5.47
2022-10-08T16:38:56.200Z,3.60
2022-10-08T16:41:26.689Z,2.10
2022-10-08T16:43:54.931Z,2.40
2022-10-08T16:46:27.395Z,1.97
2022-10-08T16:49:06.630Z,1.90
2022-10-08T16:51:36.654Z,2.70
2022-10-08T16:54:06.116Z,3.10
2022-10-08T16:56:35.358Z,3.20
2022-10-08T16:59:05.944Z,2.13
2022-10-08T17:01:32.693Z,2.40
2022-10-08T17:04:00.039Z,2.40
2022-10-08T17:06:28.999Z,2.27
2022-10-08T17:08:55.976Z,3.33
2022-10-08T17:11:22.734Z,3.40
2022-10-08T17:13:52.746Z,2.97
2022-10-08T17:16:21.149Z,2.20
2022-10-08T17:18:50.988Z,2.50
2022-10-08T17:21:18.082Z,2.90
2022-10-08T17:23:45.171Z,3.70
2022-10-08T17:26:14.795Z,3.70
2022-10-08T17:28:43.997Z,3.57
2022-10-08T17:31:16.235Z,3.80
2022-10-08T17:33:43.717Z,2.90
2022-10-08T17:36:14.099Z,3.23
2022-10-08T17:38:42.275Z,3.40
2022-10-08T17:41:21.751Z,2.77
2022-10-08T17:43:49.539Z,3.40
2022-10-08T17:46:19.164Z,3.00
2022-10-08T17:48:46.594Z,2.93
2022-10-08T17:51:15.842Z,3.17
2022-10-08T17:53:43.642Z,2.97
2022-10-08T17:56:12.552Z,2.60
2022-10-08T17:58:40.154Z,2.40
2022-10-08T18:01:16.106Z,2.77
2022-10-08T18:03:44.641Z,2.50
2022-10-08T18:06:12.378Z,2.93
2022-10-08T18:08:39.206Z,3.17
2022-10-08T18:11:08.322Z,2.80
2022-10-08T18:13:35.892Z,2.57
2022-10-08T18:16:11.809Z,2.87
2022-10-08T18:18:38.958Z,2.80
2022-10-08T18:21:06.456Z,2.60
2022-10-08T18:23:34.947Z,2.60
2022-10-08T18:26:08.838Z,2.40
2022-10-08T18:28:36.423Z,2.63
2022-10-08T18:31:05.253Z,3.07
2022-10-08T18:33:32.740Z,3.33
2022-10-08T18:36:12.890Z,3.00
2022-10-08T18:38:41.129Z,3.20
2022-10-08T18:41:38.857Z,3.30
2022-10-08T18:44:06.676Z,3.33
2022-10-08T18:46:35.315Z,5.90
2022-10-08T18:49:02.736Z,4.83
2022-10-08T18:51:30.609Z,4.77
2022-10-08T18:53:58.207Z,4.57
2022-10-08T18:56:30.470Z,4.03
2022-10-08T18:58:59.064Z,4.40
2022-10-08T19:01:31.505Z,4.40
2022-10-08T19:04:00.513Z,4.57
2022-10-08T19:06:29.769Z,4.83
2022-10-08T19:08:58.593Z,4.70
2022-10-08T19:11:27.479Z,6.00
2022-10-08T19:13:54.505Z,6.20
2022-10-08T19:16:21.913Z,5.20
2022-10-08T19:18:57.497Z,5.43
2022-10-08T19:21:25.197Z,5.53
2022-10-08T19:23:53.059Z,5.13
2022-10-08T19:26:20.227Z,5.13
2022-10-08T19:28:49.235Z,5.73
2022-10-08T19:31:27.554Z,4.90
2022-10-08T19:33:59.954Z,4.70
2022-10-08T19:36:30.631Z,5.00
2022-10-08T19:38:59.655Z,5.10
2022-10-08T19:41:27.558Z,5.30
2022-10-08T19:43:55.450Z,4.90
2022-10-08T19:46:23.318Z,5.07
2022-10-08T19:48:51.935Z,5.83
2022-10-08T19:51:19.519Z,5.60
2022-10-08T19:53:46.742Z,6.10
2022-10-08T19:56:14.384Z,8.90
2022-10-08T19:58:47.616Z,7.03
2022-10-08T20:01:17.702Z,7.07
2022-10-08T20:03:44.824Z,7.10
2022-10-08T20:06:21.718Z,7.10
2022-10-08T20:08:52.783Z,8.03
2022-10-08T20:11:19.727Z,8.03
2022-10-08T20:13:47.934Z,7.70
2022-10-08T20:16:20.571Z,8.87
2022-10-08T20:18:59.469Z,7.17
2022-10-08T20:21:28.321Z,7.43
2022-10-08T20:23:55.293Z,6.70
2022-10-08T20:26:24.649Z,6.50
2022-10-08T20:28:54.899Z,6.90
2022-10-08T20:31:34.388Z,6.93
2022-10-08T20:34:03.631Z,6.17
2022-10-08T20:36:31.244Z,6.30
2022-10-08T20:38:58.450Z,6.20
2022-10-08T20:41:30.606Z,6.50
2022-10-08T20:44:02.266Z,6.40
2022-10-08T20:46:29.372Z,5.73
2022-10-08T20:48:56.517Z,5.67
2022-10-08T20:51:28.085Z,6.10
2022-10-08T20:53:58.011Z,6.33
2022-10-08T20:56:25.492Z,6.90
2022-10-08T20:58:52.609Z,6.10
2022-10-08T21:01:23.346Z,6.03
2022-10-08T21:03:51.140Z,5.80
2022-10-08T21:06:26.775Z,6.80
2022-10-08T21:08:55.792Z,6.07
2022-10-08T21:11:24.684Z,7.27
2022-10-08T21:13:52.111Z,6.10
2022-10-08T21:16:25.050Z,6.47
2022-10-08T21:18:57.413Z,6.13
2022-10-08T21:21:24.790Z,6.37
2022-10-08T21:23:51.554Z,6.30
2022-10-08T21:26:29.032Z,5.43
2022-10-08T21:28:58.274Z,5.30
2022-10-08T21:31:26.544Z,5.97
2022-10-08T21:33:54.417Z,6.03
2022-10-08T21:36:23.975Z,6.33
2022-10-08T21:38:51.378Z,6.03
2022-10-08T21:41:19.861Z,6.30
2022-10-08T21:43:54.697Z,6.33
2022-10-08T21:46:24.396Z,6.43
2022-10-08T21:48:55.458Z,6.47
2022-10-08T21:51:22.635Z,6.20
2022-10-08T21:53:55.362Z,6.47
2022-10-08T21:56:24.136Z,6.53
2022-10-08T21:58:55.082Z,5.97
2022-10-08T22:01:36.624Z,6.23
2022-10-08T22:04:09.502Z,5.80
2022-10-08T22:06:38.989Z,6.03
2022-10-08T22:09:07.953Z,5.83
2022-10-08T22:11:34.926Z,6.07
2022-10-08T22:14:01.604Z,5.67
2022-10-08T22:16:29.716Z,5.93
2022-10-08T22:18:57.767Z,5.70
2022-10-08T22:21:24.948Z,6.50
2022-10-08T22:23:55.496Z,5.73
2022-10-08T22:26:36.576Z,6.43
2022-10-08T22:29:04.554Z,6.13
2022-10-08T22:31:32.111Z,5.93
2022-10-08T22:34:00.045Z,6.10
2022-10-08T22:36:29.618Z,5.70
2022-10-08T22:38:58.003Z,5.67
2022-10-08T22:41:29.818Z,6.23
2022-10-08T22:43:56.788Z,5.97
2022-10-08T22:46:33.944Z,5.40
2022-10-08T22:49:03.831Z,6.10
2022-10-08T22:51:30.884Z,6.00
2022-10-08T22:53:58.304Z,5.40
2022-10-08T22:56:27.874Z,5.27
2022-10-08T22:58:54.608Z,6.17
2022-10-08T23:01:23.686Z,5.40
2022-10-08T23:03:51.619Z,5.63
2022-10-08T23:06:22.853Z,5.47
2022-10-08T23:08:54.279Z,5.20
2022-10-08T23:11:22.439Z,5.77
2022-10-08T23:13:53.787Z,5.63
2022-10-08T23:16:20.918Z,5.97
2022-10-08T23:18:53.607Z,6.03
2022-10-08T23:21:20.350Z,5.77
2022-10-08T23:23:48.429Z,6.33
2022-10-08T23:26:16.332Z,5.57
2022-10-08T23:28:44.184Z,6.00
2022-10-08T23:31:16.619Z,6.10
2022-10-08T23:33:46.191Z,5.97
2022-10-08T23:36:18.326Z,5.70
2022-10-08T23:38:45.277Z,5.67
2022-10-08T23:41:12.992Z,5.73
2022-10-08T23:43:47.706Z,5.33
2022-10-08T23:46:17.527Z,5.80
2022-10-08T23:48:44.841Z,5.30
2022-10-08T23:51:13.472Z,5.20
2022-10-08T23:53:40.710Z,5.63
2022-10-08T23:56:08.296Z,5.90
2022-10-08T23:58:35.476Z,6.10
